JST977 YPPH-YBCS
Flight info
| Callsign | JST977 |
|---|---|
| Flight time | N/A |
| Altitude | 35000 |
| Route | AMANA5/21 AMANA Y31 LAKIR Y69 BOSLI Y67 YAHMO DCT BUNNY DCT WENER/N0453F370 DCT 23S135E 20S140E DCT ONARA J64 NONUM |
| Aircraft | A320/M-SDE3FGHIRWY/LB1 |
Departure
| Time | 2026-04-27 07:19 |
|---|---|
| Airport | Perth International Airport (YPPH) |
Arrival
| Time | N/A |
|---|---|
| Airport | Cairns International Airport (YBCS) |
| Time | Latitude | Longitude | Altitude | Speed | Heading |
|---|---|---|---|---|---|
| 2026-04-27 06:46 | -31.94342 | 115.97082 | 49 ft | 0 kts | 104° |
| 2026-04-27 07:03 | -31.94340 | 115.97073 | 48 ft | 3 kts | 100° |
| 2026-04-27 07:03 | -31.94338 | 115.97050 | 49 ft | 3 kts | 81° |
| 2026-04-27 07:03 | -31.94343 | 115.97027 | 47 ft | 3 kts | 77° |
| 2026-04-27 07:03 | -31.94345 | 115.97015 | 47 ft | 1 kts | 80° |
| 2026-04-27 07:04 | -31.94345 | 115.97012 | 47 ft | 0 kts | 80° |
| 2026-04-27 07:06 | -31.94345 | 115.97013 | 47 ft | 0 kts | 80° |
| 2026-04-27 07:07 | -31.94340 | 115.97017 | 46 ft | 1 kts | 36° |
| 2026-04-27 07:07 | -31.94331 | 115.97009 | 44 ft | 2 kts | 303° |
| 2026-04-27 07:07 | -31.94341 | 115.96975 | 46 ft | 6 kts | 239° |
| 2026-04-27 07:07 | -31.94364 | 115.96939 | 45 ft | 6 kts | 240° |
| 2026-04-27 07:08 | -31.94362 | 115.96897 | 49 ft | 5 kts | 286° |
| 2026-04-27 07:08 | -31.94357 | 115.96875 | 46 ft | 2 kts | 286° |
| 2026-04-27 07:08 | -31.94354 | 115.96861 | 48 ft | 1 kts | 286° |
| 2026-04-27 07:08 | -31.94345 | 115.96825 | 46 ft | 8 kts | 284° |
| 2026-04-27 07:09 | -31.94326 | 115.96781 | 49 ft | 4 kts | 323° |
| 2026-04-27 07:09 | -31.94295 | 115.96779 | 49 ft | 5 kts | 11° |
| 2026-04-27 07:09 | -31.94252 | 115.96792 | 49 ft | 8 kts | 14° |
| 2026-04-27 07:09 | -31.94179 | 115.96813 | 49 ft | 14 kts | 14° |
| 2026-04-27 07:10 | -31.94060 | 115.96848 | 49 ft | 21 kts | 14° |
| 2026-04-27 07:10 | -31.93920 | 115.96889 | 47 ft | 20 kts | 14° |
| 2026-04-27 07:10 | -31.93797 | 115.96924 | 49 ft | 17 kts | 14° |
| 2026-04-27 07:10 | -31.93687 | 115.96956 | 48 ft | 17 kts | 14° |
| 2026-04-27 07:11 | -31.93565 | 115.96992 | 48 ft | 19 kts | 14° |
| 2026-04-27 07:11 | -31.93428 | 115.97032 | 47 ft | 21 kts | 14° |
| 2026-04-27 07:11 | -31.93296 | 115.97071 | 49 ft | 18 kts | 14° |
| 2026-04-27 07:11 | -31.93181 | 115.97104 | 49 ft | 16 kts | 14° |
| 2026-04-27 07:12 | -31.93084 | 115.97132 | 49 ft | 13 kts | 14° |
| 2026-04-27 07:12 | -31.93004 | 115.97155 | 49 ft | 10 kts | 14° |
| 2026-04-27 07:12 | -31.92946 | 115.97145 | 48 ft | 8 kts | 324° |
| 2026-04-27 07:12 | -31.92934 | 115.97100 | 48 ft | 5 kts | 283° |
| 2026-04-27 07:13 | -31.92929 | 115.97079 | 48 ft | 0 kts | 285° |
| 2026-04-27 07:17 | -31.92925 | 115.97063 | 48 ft | 7 kts | 285° |
| 2026-04-27 07:17 | -31.92914 | 115.97013 | 48 ft | 5 kts | 285° |
| 2026-04-27 07:17 | -31.92904 | 115.96967 | 47 ft | 9 kts | 283° |
| 2026-04-27 07:18 | -31.92891 | 115.96902 | 49 ft | 7 kts | 283° |
| 2026-04-27 07:18 | -31.92898 | 115.96847 | 49 ft | 8 kts | 236° |
| 2026-04-27 07:18 | -31.92945 | 115.96822 | 48 ft | 8 kts | 196° |
| 2026-04-27 07:18 | -31.93090 | 115.96778 | 47 ft | 50 kts | 193° |
| 2026-04-27 07:19 | -31.93618 | 115.96625 | 47 ft | 104 kts | 194° |
| 2026-04-27 07:19 | -31.94474 | 115.96377 | 50 ft | 148 kts | 194° |
| 2026-04-27 07:19 | -31.95556 | 115.96061 | 350 ft | 158 kts | 194° |
| 2026-04-27 07:19 | -31.96637 | 115.95748 | 815 ft | 166 kts | 193° |
| 2026-04-27 07:20 | -31.97767 | 115.95422 | 1349 ft | 168 kts | 193° |
| 2026-04-27 07:20 | -31.98950 | 115.95115 | 1683 ft | 183 kts | 193° |
| 2026-04-27 07:20 | -32.00260 | 115.94800 | 1928 ft | 200 kts | 192° |
| 2026-04-27 07:20 | -32.01693 | 115.94535 | 2177 ft | 219 kts | 179° |
| 2026-04-27 07:21 | -32.03167 | 115.95188 | 2399 ft | 244 kts | 137° |
| 2026-04-27 07:21 | -32.04125 | 115.96898 | 2693 ft | 262 kts | 109° |
| 2026-04-27 07:21 | -32.04626 | 115.99041 | 3098 ft | 278 kts | 100° |
| 2026-04-27 07:21 | -32.04988 | 116.01308 | 3716 ft | 284 kts | 98° |
| 2026-04-27 07:22 | -32.05341 | 116.03599 | 4379 ft | 289 kts | 100° |
| 2026-04-27 07:22 | -32.05742 | 116.05949 | 5060 ft | 295 kts | 102° |
| 2026-04-27 07:22 | -32.06202 | 116.08311 | 5804 ft | 296 kts | 103° |
| 2026-04-27 07:22 | -32.06695 | 116.10677 | 6486 ft | 300 kts | 103° |
| 2026-04-27 07:23 | -32.07236 | 116.13069 | 7131 ft | 302 kts | 105° |
| 2026-04-27 07:23 | -32.07810 | 116.15457 | 7789 ft | 305 kts | 105° |
| 2026-04-27 07:23 | -32.08342 | 116.17885 | 8422 ft | 307 kts | 97° |
| 2026-04-27 07:23 | -32.08339 | 116.20397 | 9040 ft | 307 kts | 77° |
| 2026-04-27 07:24 | -32.07664 | 116.22772 | 9654 ft | 305 kts | 57° |
| 2026-04-27 07:24 | -32.06412 | 116.24774 | 10217 ft | 304 kts | 42° |
| 2026-04-27 07:24 | -32.04900 | 116.26641 | 10353 ft | 324 kts | 42° |
| 2026-04-27 07:24 | -32.03293 | 116.28622 | 10478 ft | 343 kts | 43° |
| 2026-04-27 07:25 | -32.01602 | 116.30716 | 10600 ft | 361 kts | 43° |
| 2026-04-27 07:25 | -31.99837 | 116.32917 | 10726 ft | 378 kts | 43° |
| 2026-04-27 07:25 | -31.98029 | 116.35179 | 11047 ft | 387 kts | 43° |
| 2026-04-27 07:25 | -31.96175 | 116.37500 | 11516 ft | 391 kts | 43° |
| 2026-04-27 07:26 | -31.94303 | 116.39844 | 12027 ft | 395 kts | 43° |
| 2026-04-27 07:26 | -31.92407 | 116.42215 | 12519 ft | 399 kts | 43° |
| 2026-04-27 07:26 | -31.91143 | 116.43789 | 12838 ft | 401 kts | 43° |
| 2026-04-27 07:26 | -31.89209 | 116.46193 | 13325 ft | 405 kts | 43° |
| 2026-04-27 07:27 | -31.87263 | 116.48610 | 13816 ft | 408 kts | 43° |
| 2026-04-27 07:27 | -31.85294 | 116.51054 | 14260 ft | 411 kts | 43° |
| 2026-04-27 07:27 | -31.83316 | 116.53506 | 14784 ft | 414 kts | 43° |
| 2026-04-27 07:27 | -31.81330 | 116.55965 | 15327 ft | 416 kts | 43° |
| 2026-04-27 07:28 | -31.79330 | 116.58442 | 15812 ft | 418 kts | 41° |
| 2026-04-27 07:28 | -31.77316 | 116.60932 | 16254 ft | 422 kts | 41° |
| 2026-04-27 07:28 | -31.75313 | 116.63406 | 16723 ft | 425 kts | 41° |
| 2026-04-27 07:28 | -31.73269 | 116.65937 | 17183 ft | 428 kts | 41° |
| 2026-04-27 07:29 | -31.71211 | 116.68485 | 17644 ft | 431 kts | 41° |
| 2026-04-27 07:29 | -31.69141 | 116.71048 | 18081 ft | 434 kts | 41° |
| 2026-04-27 07:29 | -31.67050 | 116.73632 | 18481 ft | 437 kts | 41° |
| 2026-04-27 07:29 | -31.64952 | 116.76219 | 18871 ft | 440 kts | 41° |
| 2026-04-27 07:30 | -31.62829 | 116.78828 | 19280 ft | 441 kts | 41° |
| 2026-04-27 07:30 | -31.60703 | 116.81438 | 19677 ft | 443 kts | 41° |
| 2026-04-27 07:30 | -31.58572 | 116.84060 | 20082 ft | 445 kts | 41° |
| 2026-04-27 07:30 | -31.56471 | 116.86740 | 20468 ft | 450 kts | 45° |
| 2026-04-27 07:31 | -31.54676 | 116.89779 | 20828 ft | 458 kts | 55° |
| 2026-04-27 07:31 | -31.53200 | 116.93108 | 21174 ft | 462 kts | 58° |
| 2026-04-27 07:31 | -31.51737 | 116.96469 | 21507 ft | 464 kts | 58° |
| 2026-04-27 07:31 | -31.50262 | 116.99842 | 21821 ft | 466 kts | 57° |
| 2026-04-27 07:32 | -31.48778 | 117.03226 | 22142 ft | 468 kts | 57° |
| 2026-04-27 07:32 | -31.47288 | 117.06622 | 22467 ft | 469 kts | 57° |
| 2026-04-27 07:32 | -31.45788 | 117.10027 | 22762 ft | 471 kts | 57° |
| 2026-04-27 07:32 | -31.44281 | 117.13447 | 23055 ft | 473 kts | 57° |
| 2026-04-27 07:33 | -31.42767 | 117.16880 | 23339 ft | 475 kts | 57° |
| 2026-04-27 07:33 | -31.41270 | 117.20279 | 23609 ft | 476 kts | 58° |
| 2026-04-27 07:33 | -31.39755 | 117.23720 | 23934 ft | 475 kts | 58° |
| 2026-04-27 07:33 | -31.38245 | 117.27144 | 24315 ft | 473 kts | 58° |
| 2026-04-27 07:34 | -31.36742 | 117.30546 | 24673 ft | 471 kts | 58° |
| 2026-04-27 07:34 | -31.35230 | 117.33962 | 25023 ft | 470 kts | 58° |
| 2026-04-27 07:34 | -31.33728 | 117.37357 | 25385 ft | 469 kts | 58° |
| 2026-04-27 07:34 | -31.32229 | 117.40741 | 25743 ft | 468 kts | 58° |
| 2026-04-27 07:35 | -31.30730 | 117.44122 | 26109 ft | 467 kts | 58° |
| 2026-04-27 07:35 | -31.29229 | 117.47502 | 26473 ft | 466 kts | 58° |
| 2026-04-27 07:35 | -31.27733 | 117.50870 | 26783 ft | 467 kts | 58° |
| 2026-04-27 07:35 | -31.26241 | 117.54244 | 27105 ft | 468 kts | 58° |
| 2026-04-27 07:36 | -31.24795 | 117.57664 | 27473 ft | 468 kts | 60° |
| 2026-04-27 07:36 | -31.23420 | 117.61055 | 27835 ft | 467 kts | 60° |
| 2026-04-27 07:36 | -31.22054 | 117.64498 | 28225 ft | 466 kts | 60° |
| 2026-04-27 07:36 | -31.20696 | 117.67935 | 28597 ft | 465 kts | 60° |
| 2026-04-27 07:37 | -31.19333 | 117.71359 | 28970 ft | 464 kts | 60° |
| 2026-04-27 07:37 | -31.17960 | 117.74766 | 29348 ft | 463 kts | 60° |
| 2026-04-27 07:37 | -31.16580 | 117.78158 | 29752 ft | 462 kts | 60° |
| 2026-04-27 07:37 | -31.15193 | 117.81541 | 30164 ft | 461 kts | 59° |
| 2026-04-27 07:38 | -31.13808 | 117.84906 | 30489 ft | 460 kts | 59° |
| 2026-04-27 07:38 | -31.12424 | 117.88266 | 30789 ft | 459 kts | 59° |
| 2026-04-27 07:38 | -31.11046 | 117.91615 | 31094 ft | 458 kts | 59° |
| 2026-04-27 07:38 | -31.09665 | 117.94973 | 31399 ft | 457 kts | 59° |
| 2026-04-27 07:39 | -31.08291 | 117.98313 | 31699 ft | 456 kts | 59° |
| 2026-04-27 07:39 | -31.06918 | 118.01651 | 32015 ft | 455 kts | 59° |
| 2026-04-27 07:39 | -31.05549 | 118.04975 | 32317 ft | 455 kts | 59° |
| 2026-04-27 07:39 | -31.04178 | 118.08296 | 32612 ft | 454 kts | 59° |
| 2026-04-27 07:40 | -31.02811 | 118.11615 | 32920 ft | 453 kts | 59° |
| 2026-04-27 07:40 | -31.01450 | 118.14925 | 33222 ft | 452 kts | 59° |
| 2026-04-27 07:40 | -31.00110 | 118.18188 | 33509 ft | 452 kts | 59° |
| 2026-04-27 07:40 | -30.98751 | 118.21486 | 33786 ft | 451 kts | 59° |
| 2026-04-27 07:41 | -30.97391 | 118.24771 | 34048 ft | 450 kts | 59° |
| 2026-04-27 07:41 | -30.96028 | 118.28059 | 34256 ft | 450 kts | 59° |
| 2026-04-27 07:41 | -30.94666 | 118.31344 | 34436 ft | 450 kts | 59° |
| 2026-04-27 07:41 | -30.93302 | 118.34632 | 34604 ft | 451 kts | 59° |
| 2026-04-27 07:42 | -30.91933 | 118.37922 | 34753 ft | 451 kts | 59° |
| 2026-04-27 07:42 | -30.90561 | 118.41216 | 34925 ft | 452 kts | 59° |
| 2026-04-27 07:42 | -30.89194 | 118.44505 | 35009 ft | 454 kts | 59° |
| 2026-04-27 07:43 | -30.86413 | 118.51198 | 35029 ft | 463 kts | 59° |
| 2026-04-27 07:43 | -30.83573 | 118.58010 | 35024 ft | 471 kts | 59° |
| 2026-04-27 07:44 | -30.80697 | 118.64895 | 35021 ft | 473 kts | 59° |
| 2026-04-27 07:44 | -30.77826 | 118.71740 | 35021 ft | 474 kts | 58° |
| 2026-04-27 07:45 | -30.74926 | 118.78639 | 35020 ft | 474 kts | 58° |
| 2026-04-27 07:45 | -30.72029 | 118.85537 | 35019 ft | 474 kts | 59° |
| 2026-04-27 07:46 | -30.69349 | 118.92520 | 35018 ft | 478 kts | 63° |
| 2026-04-27 07:46 | -30.67023 | 118.99777 | 34999 ft | 480 kts | 65° |
| 2026-04-27 07:47 | -30.64697 | 119.07055 | 35005 ft | 480 kts | 64° |
| 2026-04-27 07:47 | -30.62268 | 119.14262 | 35013 ft | 480 kts | 63° |
| 2026-04-27 07:48 | -30.59776 | 119.21476 | 35022 ft | 480 kts | 63° |
| 2026-04-27 07:48 | -30.57296 | 119.28682 | 35003 ft | 481 kts | 63° |
| 2026-04-27 07:49 | -30.54827 | 119.35904 | 35008 ft | 482 kts | 63° |
| 2026-04-27 07:49 | -30.52354 | 119.43142 | 35016 ft | 483 kts | 63° |
| 2026-04-27 07:50 | -30.49885 | 119.50335 | 35029 ft | 483 kts | 63° |
| 2026-04-27 07:50 | -30.47391 | 119.57571 | 35019 ft | 483 kts | 62° |
| 2026-04-27 07:51 | -30.44892 | 119.64816 | 35028 ft | 483 kts | 62° |
| 2026-04-27 07:51 | -30.42386 | 119.72049 | 35038 ft | 484 kts | 62° |
| 2026-04-27 07:52 | -30.39874 | 119.79292 | 35045 ft | 484 kts | 62° |
| 2026-04-27 07:52 | -30.37376 | 119.86475 | 35030 ft | 484 kts | 62° |
| 2026-04-27 07:53 | -30.34853 | 119.93728 | 35035 ft | 485 kts | 62° |
| 2026-04-27 07:53 | -30.32323 | 120.00980 | 35045 ft | 486 kts | 62° |
| 2026-04-27 07:54 | -30.29792 | 120.08225 | 35057 ft | 486 kts | 62° |
| 2026-04-27 07:54 | -30.27248 | 120.15477 | 35043 ft | 487 kts | 62° |
| 2026-04-27 07:55 | -30.24697 | 120.22736 | 35053 ft | 487 kts | 62° |
| 2026-04-27 07:55 | -30.22150 | 120.29993 | 35059 ft | 487 kts | 62° |
| 2026-04-27 07:56 | -30.19592 | 120.37242 | 35072 ft | 488 kts | 62° |
| 2026-04-27 07:56 | -30.17027 | 120.44510 | 35065 ft | 487 kts | 62° |
| 2026-04-27 07:57 | -30.14485 | 120.51713 | 35089 ft | 486 kts | 62° |
| 2026-04-27 07:57 | -30.11924 | 120.58947 | 35088 ft | 486 kts | 61° |
| 2026-04-27 07:58 | -30.09356 | 120.66158 | 35086 ft | 485 kts | 61° |
| 2026-04-27 07:58 | -30.06783 | 120.73351 | 35084 ft | 485 kts | 61° |
| 2026-04-27 07:59 | -30.04208 | 120.80573 | 35074 ft | 486 kts | 61° |
| 2026-04-27 07:59 | -30.00346 | 120.91390 | 35074 ft | 486 kts | 61° |
| 2026-04-27 08:00 | -29.97757 | 120.98604 | 35072 ft | 487 kts | 61° |